Islamorada, FL

9:06 AM EDT on June 30, 2015 (GMT -0400)
Dade County-Homestead Regional | | Change Station
CLOSE
Current Station
Airport
Location: Homestead AFB,
Elevation: 7 ft
Nearby Weather Stations

Elev 7 ft 25.49 °N, 80.38 °W | Updated 8 minutes ago

Partly Cloudy
Partly Cloudy
85 °F
Feels Like 94 °F
N
9
Wind Variable Wind from NNW

Today
High -- | Low -- °F
--% Chance of Precip.
Yesterday
High -- | Low -- °F
Precip. -- in
6:36 AM 8:16 PM
Waxing Gibbous, 97% visible
Pressure 30.15 in
Visibility 10.0 miles
Clouds Clear
Heat Index 94 °F
Dew Point 76 °F
Humidity 75%
Rainfall 0.00 in
Snow Depth Not available.
UV 4 out of 12
Pollen 3.20 out of 12
Air Quality Not available.
Flu Activity Sporadic
METAR KHST 301258Z AUTO 34008KT 10SM CLR 29/24 A3014 RMK AO2 SLP210 T02920243

More Conditions Fewer Conditions

Pressure 30.15 in
Visibility 10.0 miles
Clouds Clear
Heat Index 94 °F
Dew Point 76 °F
Humidity 75%
Rainfall 0.00 in
Snow Depth Not available.
UV 4 out of 12
Pollen 3.20 out of 12
Air Quality Not available.
Flu Activity Sporadic
METAR KHST 301258Z AUTO 34008KT 10SM CLR 29/24 A3014 RMK AO2 SLP210 T02920243

More Conditions Fewer Conditions

10-Day Weather Forecast

Almanac

Astronomy

Jun. 30, 2015 Rise Set
Actual Time
Civil Twilight
Nautical Twilight
Astronomical Twilight
Moon
Length of Visible Light
Length of Day
Tomorrow will be .
, % of the Moon is Illuminated

Today's Extremes

State Highs State Lows

Community

WunderPhotos

Upload Photos

1,833,990 photos uploaded!

WunderBlogs® & News

Nearby

Air Quality

  Air Quality AQ Index Pollutant
Not available.

Snow Depth

Station Depth Elevation

Earthquake Activity

City Distance Mag. Time & Date
Minimum magnitude displayed is 2.5.

Coastal Water Temperatures

Place Temperature

Stations

Nearby Weather Stations

Station Location Temp. Windchill Dew Point Humidity Wind Precip. Elev Updated Type